Dortmund, Germany

9:52 AM CET on February 08, 2016 (GMT +0100)
Dortmund | | Change Station
CLOSE
Current Station
Airport
Location: Dortmund,
Elevation: 417 ft
Nearby Weather Stations

Elev 417 ft 51.52 °N, 7.61 °E | Updated 32 minutes ago

Light Rain
Light Rain
45 °F
Feels Like 37 °F
N
18
Wind Variable Wind from SSW
Gusts 31 mph

Today
High -- | Low -- °F
--% Chance of Precip.
Yesterday
High -- | Low -- °F
Precip. -- in
Pressure 29.30 in
Visibility 5.0 miles
Clouds Mostly Cloudy 3000 ft
Windchill 37 °F
Dew Point 39 °F
Humidity 81%
Rainfall 0.00 in
Snow Depth Not available.
7:57 AM 5:30 PM
Waning Crescent, 0% visible
METAR EDLW 080820Z 20016G27KT 8000 -RA BKN030 07/04 Q0992
Pressure 29.30 in
Visibility 5.0 miles
Clouds Mostly Cloudy 3000 ft
Windchill 37 °F
Dew Point 39 °F
Humidity 81%
Rainfall 0.00 in
Snow Depth Not available.
7:57 AM 5:30 PM
Waning Crescent, 0% visible
METAR EDLW 080820Z 20016G27KT 8000 -RA BKN030 07/04 Q0992

10-Day Weather Forecast

Almanac

Astronomy

Feb. 08, 2016 Rise Set
Actual Time
Civil Twilight
Nautical Twilight
Astronomical Twilight
Moon
Length of Visible Light
Length of Day
Tomorrow will be .
, % of the Moon is Illuminated

Today's Extremes

Country Highs Country Lows

Community

WunderPhotos

Upload Photos

1,891,412 photos uploaded!

WunderBlog® & News

Nearby

Air Quality

  Air Quality AQ Index Pollutant
Not available.

Snow Depth

Station Depth Elevation

Earthquake Activity

City Distance Mag. Time & Date
Minimum magnitude displayed is 2.5.

Coastal Water Temperatures

Place Temperature

Stations

Nearby Weather Stations

Station Location Temp. Windchill Dew Point Humidity Wind Precip. Elev Updated Type